CheckWX is a tool to help pilots better visualize weather data.  It is not intended as a substitute for an official pre-flight weather briefing.

06:10:43 UTC

CYCK METAR
Chatham Kent Airport
Chatham-Kent, Canada
Current

11 mins ago

CYCK 230600Z AUTO 14005KT 9SM BKN150 BKN200 BKN220 09/07 A3000 RMK SLP163
Observed
Apr-23 @ 06:00 UTC
Wind
  • 140° at 5 KTS
Visibility
9 SM
Flight Rules
VFR
Cloud Levels
  • Broken at 15,000' AGL
  • Broken at 20,000' AGL
  • Broken at 22,000' AGL
Temperature
C / 48°F
Dewpoint
C / 45°F
Humidity
87%
Altimeter
30" Hg
Pressure
1015.92 hPa
Previous

1 hour ago

CYCK 230500Z AUTO 13010KT 9SM FEW120 BKN150 BKN180 09/06 A3002 RMK SLP168
Observed
Apr-23 @ 05:00 UTC
Wind
  • 130° at 10 KTS
Visibility
9 SM
Flight Rules
VFR
Cloud Levels
  • Few at 12,000' AGL
  • Broken at 15,000' AGL
  • Broken at 18,000' AGL
Temperature
C / 48°F
Dewpoint
C / 43°F
Humidity
82%
Altimeter
30.02" Hg
Pressure
1016.62 hPa
Previous

2 hours ago

CYCK 230400Z AUTO 12011KT 9SM BKN140 BKN170 09/06 A3004 RMK SLP176
Observed
Apr-23 @ 04:00 UTC
Wind
  • 120° at 11 KTS
Visibility
9 SM
Flight Rules
VFR
Cloud Levels
  • Broken at 14,000' AGL
  • Broken at 17,000' AGL
Temperature
C / 48°F
Dewpoint
C / 43°F
Humidity
82%
Altimeter
30.04" Hg
Pressure
1017.32 hPa